Time;durP1;ratioP1;P1;durP2;ratioP2;P2;SDS_P1;SDS_P2;PMS_P1;PMS_P2;Temp;Humidity;BMP_temperature;BMP_pressure;BME280_temperature;BME280_humidity;BME280_pressure;Samples;Min_cycle;Max_cycle;Signal;HPM_P1;HPM_P2
2023/08/14 00:02:23;;;;;;;9.15;5.32;;;17.90;99.90;;;;;;5070138;28;20036;-72
2023/08/14 00:04:50;;;;;;;12.35;5.53;;;17.90;99.90;;;;;;5063494;28;20033;-72
2023/08/14 00:07:15;;;;;;;11.93;5.03;;;17.80;99.90;;;;;;5071622;28;20017;-71
2023/08/14 00:09:41;;;;;;;11.48;5.60;;;17.80;99.90;;;;;;5080545;28;20377;-72
2023/08/14 00:12:07;;;;;;;13.10;5.63;;;17.70;99.90;;;;;;5083417;28;20052;-72
2023/08/14 00:14:32;;;;;;;12.07;5.95;;;17.80;99.90;;;;;;5083959;28;20059;-71
2023/08/14 00:16:58;;;;;;;13.35;5.88;;;17.70;99.90;;;;;;5087338;28;20096;-70
2023/08/14 00:19:24;;;;;;;11.38;5.75;;;17.60;99.90;;;;;;5085909;28;20051;-72
2023/08/14 00:21:50;;;;;;;13.98;6.28;;;17.60;99.90;;;;;;5087723;28;20043;-72
2023/08/14 00:24:16;;;;;;;13.02;5.57;;;17.60;99.90;;;;;;5087607;28;20080;-71
2023/08/14 00:26:41;;;;;;;12.48;5.88;;;17.60;99.90;;;;;;5083944;28;20082;-72
2023/08/14 00:29:07;;;;;;;14.45;5.85;;;17.50;99.90;;;;;;5067223;28;20040;-72
2023/08/14 00:31:32;;;;;;;12.70;6.40;;;17.40;99.90;;;;;;5065914;28;20029;-72
2023/08/14 00:33:58;;;;;;;13.02;5.90;;;17.40;99.90;;;;;;5071076;28;20428;-71
2023/08/14 00:36:24;;;;;;;13.25;6.28;;;17.40;99.90;;;;;;5087634;28;20027;-72
2023/08/14 00:38:51;;;;;;;14.60;5.90;;;17.30;99.90;;;;;;5087097;28;20452;-72
2023/08/14 00:41:17;;;;;;;11.65;6.25;;;17.30;99.90;;;;;;5087075;28;20025;-72
2023/08/14 00:43:42;;;;;;;15.38;5.75;;;17.30;99.90;;;;;;5071615;28;20032;-72
2023/08/14 00:46:08;;;;;;;12.77;5.75;;;17.20;99.90;;;;;;5065228;28;20025;-72
2023/08/14 00:48:35;;;;;;;13.27;5.65;;;17.20;99.90;;;;;;5066793;28;20032;-70
2023/08/14 00:51:01;;;;;;;12.38;5.43;;;17.20;99.90;;;;;;5066898;28;20071;-72
2023/08/14 00:53:29;;;;;;;11.90;5.90;;;17.20;99.90;;;;;;5066380;28;20040;-72
2023/08/14 00:55:55;;;;;;;13.00;5.78;;;17.10;99.90;;;;;;5065393;28;20021;-72
2023/08/14 00:58:25;;;;;;;11.45;6.15;;;17.10;99.90;;;;;;5073088;28;20122;-72
2023/08/14 01:00:51;;;;;;;14.43;5.78;;;17.10;99.90;;;;;;5080390;28;20025;-73
2023/08/14 01:03:19;;;;;;;11.35;5.63;;;17.10;99.90;;;;;;5071590;28;20053;-72
2023/08/14 01:05:45;;;;;;;13.52;5.90;;;17.10;99.90;;;;;;5083517;28;20029;-72
2023/08/14 01:08:11;;;;;;;11.55;5.70;;;17.10;99.90;;;;;;5085172;28;20033;-72
2023/08/14 01:10:48;;;;;;;14.27;5.78;;;17.00;99.90;;;;;;5085401;28;20036;-71
2023/08/14 01:13:20;;;;;;;12.43;5.63;;;17.00;99.90;;;;;;5069874;28;20032;-72
2023/08/14 01:15:52;;;;;;;14.88;5.75;;;17.00;99.90;;;;;;5066494;28;20051;-72
2023/08/14 01:18:21;;;;;;;12.48;5.63;;;16.90;99.90;;;;;;5066681;28;20041;-72
2023/08/14 01:21:03;;;;;;;14.43;6.25;;;16.90;99.90;;;;;;5067047;28;20025;-71
2023/08/14 01:24:06;;;;;;;10.07;5.50;;;16.90;99.90;;;;;;5077563;28;20044;-72
2023/08/14 01:26:34;;;;;;;9.27;5.50;;;16.90;99.90;;;;;;5085487;28;20031;-72
2023/08/14 01:29:00;;;;;;;11.10;5.72;;;16.80;99.90;;;;;;5085866;28;20016;-71
2023/08/14 01:31:26;;;;;;;11.45;5.75;;;16.80;99.90;;;;;;5084729;28;20029;-73
2023/08/14 01:33:52;;;;;;;15.93;6.03;;;16.80;99.90;;;;;;5085956;28;20102;-72
2023/08/14 01:36:35;;;;;;;12.18;5.90;;;16.80;99.90;;;;;;5086081;28;20025;-71
2023/08/14 01:39:08;;;;;;;14.75;6.55;;;16.70;99.90;;;;;;5068321;28;20037;-72
2023/08/14 01:42:04;;;;;;;12.57;6.25;;;16.70;99.90;;;;;;5074443;28;20020;-71
2023/08/14 01:44:32;;;;;;;12.85;6.18;;;16.70;99.90;;;;;;5086009;28;20028;-72
2023/08/14 01:47:00;;;;;;;10.88;5.82;;;16.70;99.90;;;;;;5071638;28;20044;-72
2023/08/14 01:49:30;;;;;;;16.10;6.10;;;16.60;99.90;;;;;;5064186;28;20052;-71
2023/08/14 01:51:57;;;;;;;13.77;6.65;;;16.70;99.90;;;;;;5064264;28;20056;-71
2023/08/14 01:54:23;;;;;;;10.95;6.20;;;16.70;99.90;;;;;;5065678;28;20075;-71
2023/08/14 01:56:48;;;;;;;13.00;6.47;;;16.70;99.90;;;;;;5065562;28;20029;-73
2023/08/14 01:59:14;;;;;;;14.05;6.43;;;16.60;99.90;;;;;;5065800;28;20036;-73
2023/08/14 02:01:40;;;;;;;14.15;6.75;;;16.70;99.90;;;;;;5065331;28;20021;-72
2023/08/14 02:04:07;;;;;;;19.52;7.80;;;16.60;99.90;;;;;;5063647;28;20029;-72
2023/08/14 02:06:33;;;;;;;13.88;6.65;;;16.60;99.90;;;;;;5065459;28;20091;-72
2023/08/14 02:08:58;;;;;;;11.32;6.32;;;16.60;99.90;;;;;;5063789;28;20025;-72
2023/08/14 02:11:24;;;;;;;16.30;6.55;;;16.60;99.90;;;;;;5070649;28;20060;-71
2023/08/14 02:13:50;;;;;;;9.93;6.20;;;16.50;99.90;;;;;;5077367;28;20049;-72
2023/08/14 02:16:15;;;;;;;9.98;6.00;;;16.50;99.90;;;;;;5075949;28;20076;-72
2023/08/14 02:18:41;;;;;;;12.43;6.13;;;16.40;99.90;;;;;;5084988;28;20103;-72
2023/08/14 02:21:06;;;;;;;12.32;6.25;;;16.40;99.90;;;;;;5085273;28;20519;-72
2023/08/14 02:23:32;;;;;;;10.18;5.97;;;16.40;99.90;;;;;;5084833;28;20028;-73
2023/08/14 02:25:58;;;;;;;11.05;6.00;;;16.40;99.90;;;;;;5084984;28;20044;-71
2023/08/14 02:28:24;;;;;;;11.65;6.07;;;16.30;99.90;;;;;;5083669;28;20040;-71
2023/08/14 02:30:49;;;;;;;13.48;5.88;;;16.30;99.90;;;;;;5068742;28;20089;-72
2023/08/14 02:33:15;;;;;;;13.32;6.15;;;16.30;99.90;;;;;;5063667;28;20063;-72
2023/08/14 02:35:40;;;;;;;14.57;6.50;;;16.30;99.90;;;;;;5063683;28;20033;-72
2023/08/14 02:38:07;;;;;;;13.38;5.90;;;16.30;99.90;;;;;;5064482;28;20166;-72
2023/08/14 02:40:33;;;;;;;11.68;6.07;;;16.20;99.90;;;;;;5064843;28;20436;-72
2023/08/14 02:43:01;;;;;;;12.20;6.28;;;16.20;99.90;;;;;;5064616;28;20078;-73
2023/08/14 02:45:27;;;;;;;12.35;6.03;;;16.20;99.90;;;;;;5063145;28;20025;-72
2023/08/14 02:47:53;;;;;;;14.02;6.50;;;16.20;99.90;;;;;;5063289;28;20025;-72
2023/08/14 02:50:21;;;;;;;14.57;6.13;;;16.20;99.90;;;;;;5064921;28;20127;-72
2023/08/14 02:52:49;;;;;;;14.05;6.70;;;16.20;99.90;;;;;;5062995;28;20575;-72
2023/08/14 02:55:15;;;;;;;14.65;6.85;;;16.20;99.90;;;;;;5067479;28;20060;-72
2023/08/14 02:57:41;;;;;;;12.02;6.55;;;16.10;99.90;;;;;;5068119;28;20063;-72
2023/08/14 03:00:07;;;;;;;11.70;6.35;;;16.10;99.90;;;;;;5063706;28;20033;-73
2023/08/14 03:02:34;;;;;;;13.07;6.30;;;16.10;99.90;;;;;;5073482;28;20057;-73
2023/08/14 03:05:00;;;;;;;8.55;5.80;;;16.10;99.90;;;;;;5082636;28;20024;-73
2023/08/14 03:07:25;;;;;;;12.10;6.60;;;16.10;99.90;;;;;;5083427;28;20048;-73
2023/08/14 03:09:52;;;;;;;10.23;5.93;;;16.00;99.90;;;;;;5083400;28;20024;-74
2023/08/14 03:12:17;;;;;;;12.07;5.78;;;16.00;99.90;;;;;;5084377;28;20536;-73
2023/08/14 03:14:43;;;;;;;12.70;5.95;;;16.00;99.90;;;;;;5084242;28;20021;-73
2023/08/14 03:17:09;;;;;;;9.45;5.43;;;16.00;99.90;;;;;;5084492;28;20029;-73
2023/08/14 03:19:34;;;;;;;12.52;6.20;;;15.90;99.90;;;;;;5084225;28;20209;-72
2023/08/14 03:22:00;;;;;;;11.05;6.18;;;16.00;99.90;;;;;;5078347;28;20033;-73
2023/08/14 03:24:25;;;;;;;13.20;6.28;;;15.90;99.90;;;;;;5064262;28;20056;-73
2023/08/14 03:26:51;;;;;;;9.68;5.75;;;15.90;99.90;;;;;;5072219;28;20079;-72
2023/08/14 03:29:17;;;;;;;8.65;5.85;;;15.90;99.90;;;;;;5062712;28;20017;-74
2023/08/14 03:31:42;;;;;;;10.70;6.22;;;15.90;99.90;;;;;;5063933;28;20195;-72
2023/08/14 03:34:09;;;;;;;10.75;6.28;;;15.90;99.90;;;;;;5064275;28;20083;-73
2023/08/14 03:36:34;;;;;;;11.05;6.03;;;15.90;99.90;;;;;;5063979;28;20028;-72
2023/08/14 03:39:00;;;;;;;11.02;6.40;;;15.80;99.90;;;;;;5063451;28;20049;-73
2023/08/14 03:41:25;;;;;;;9.73;5.72;;;15.80;99.90;;;;;;5063594;28;20390;-75
2023/08/14 03:43:51;;;;;;;9.98;5.60;;;15.80;99.90;;;;;;5063864;28;20130;-73
2023/08/14 03:46:17;;;;;;;12.52;5.75;;;15.70;99.90;;;;;;5062958;28;20078;-74
2023/08/14 03:48:43;;;;;;;11.38;6.03;;;15.70;99.90;;;;;;5062610;28;20027;-72
2023/08/14 03:51:09;;;;;;;9.90;5.75;;;15.70;99.90;;;;;;5066154;28;20484;-72
2023/08/14 03:53:35;;;;;;;10.27;6.00;;;15.70;99.90;;;;;;5066210;28;20049;-73
2023/08/14 03:56:00;;;;;;;9.45;5.82;;;15.70;99.90;;;;;;5066483;28;20060;-73
2023/08/14 03:58:26;;;;;;;11.50;6.45;;;15.70;99.90;;;;;;5066313;28;20036;-73
2023/08/14 04:00:51;;;;;;;12.10;6.40;;;15.70;99.90;;;;;;5080808;28;20081;-72
2023/08/14 04:03:17;;;;;;;11.98;6.70;;;15.70;99.90;;;;;;5077383;28;20021;-73
2023/08/14 04:05:43;;;;;;;10.60;6.03;;;15.70;99.90;;;;;;5067735;28;20541;-73
2023/08/14 04:08:09;;;;;;;12.63;6.13;;;15.70;99.90;;;;;;5067820;28;20029;-74
2023/08/14 04:10:35;;;;;;;9.40;5.82;;;15.70;99.90;;;;;;5067423;28;20081;-73
2023/08/14 04:13:01;;;;;;;11.07;6.22;;;15.70;99.90;;;;;;5065808;28;20048;-73
2023/08/14 04:15:27;;;;;;;13.32;6.47;;;15.70;99.90;;;;;;5067457;28;20044;-72
2023/08/14 04:17:52;;;;;;;9.98;6.38;;;15.70;99.90;;;;;;5083087;28;20029;-73
2023/08/14 04:20:18;;;;;;;15.07;6.22;;;15.70;99.90;;;;;;5087012;28;20056;-73
2023/08/14 04:22:44;;;;;;;15.27;6.45;;;15.70;99.90;;;;;;5085767;28;20039;-72
2023/08/14 04:25:09;;;;;;;10.73;6.50;;;15.70;99.90;;;;;;5085554;28;20021;-73
2023/08/14 04:27:37;;;;;;;10.32;6.47;;;15.70;99.90;;;;;;5087106;28;20040;-73
2023/08/14 04:30:04;;;;;;;12.20;6.50;;;15.70;99.90;;;;;;5087201;28;20020;-74
2023/08/14 04:32:30;;;;;;;13.15;6.68;;;15.70;99.90;;;;;;5078975;28;20064;-72
2023/08/14 04:34:55;;;;;;;14.68;7.00;;;15.70;99.90;;;;;;5068332;28;20036;-73
2023/08/14 04:37:22;;;;;;;15.80;6.95;;;15.70;99.90;;;;;;5077911;28;20032;-73
2023/08/14 04:39:48;;;;;;;13.77;7.45;;;15.70;99.90;;;;;;5073786;28;20041;-74
2023/08/14 04:42:14;;;;;;;12.38;7.63;;;15.70;99.90;;;;;;5078988;28;20066;-72
2023/08/14 04:44:39;;;;;;;13.57;7.03;;;15.70;99.90;;;;;;5069027;28;20021;-73
2023/08/14 04:47:05;;;;;;;16.15;7.30;;;15.70;99.90;;;;;;5073560;28;20048;-72
2023/08/14 04:49:31;;;;;;;12.30;7.35;;;15.70;99.90;;;;;;5069587;28;20021;-73
2023/08/14 04:51:56;;;;;;;15.18;7.88;;;15.70;99.90;;;;;;5070148;28;20041;-73
2023/08/14 04:54:22;;;;;;;13.60;8.38;;;15.80;99.90;;;;;;5077699;28;20036;-74
2023/08/14 04:56:48;;;;;;;14.90;7.63;;;15.80;99.90;;;;;;5075730;28;20032;-74
2023/08/14 04:59:13;;;;;;;13.63;8.15;;;15.80;99.90;;;;;;5065390;28;20045;-72
2023/08/14 05:01:39;;;;;;;13.38;8.32;;;15.90;99.90;;;;;;5065907;28;20100;-73
2023/08/14 05:04:05;;;;;;;15.85;8.23;;;15.90;99.90;;;;;;5067078;28;20522;-74
2023/08/14 05:06:30;;;;;;;15.55;8.82;;;15.90;99.90;;;;;;5065107;28;20029;-74
2023/08/14 05:08:56;;;;;;;15.32;8.90;;;15.90;99.90;;;;;;5065200;28;20048;-74
2023/08/14 05:11:22;;;;;;;17.90;8.68;;;16.00;99.90;;;;;;5067245;28;20025;-74
2023/08/14 05:13:48;;;;;;;15.38;8.90;;;16.00;99.90;;;;;;5077336;28;20037;-75
2023/08/14 05:16:13;;;;;;;15.80;8.63;;;16.00;99.90;;;;;;5066377;28;20025;-74
2023/08/14 05:18:39;;;;;;;13.57;8.27;;;16.10;99.90;;;;;;5066198;28;20510;-73
2023/08/14 05:21:05;;;;;;;13.60;8.40;;;16.10;99.90;;;;;;5068128;28;20029;-74
2023/08/14 05:23:30;;;;;;;19.27;9.00;;;16.20;99.90;;;;;;5066545;28;20029;-73
2023/08/14 05:25:56;;;;;;;18.58;9.25;;;16.30;99.90;;;;;;5066371;28;20029;-74
2023/08/14 05:28:21;;;;;;;15.88;9.05;;;16.40;99.90;;;;;;5080968;28;20045;-73
2023/08/14 05:30:47;;;;;;;16.80;9.65;;;16.50;99.90;;;;;;5066338;28;20037;-74
2023/08/14 05:33:13;;;;;;;19.27;10.65;;;16.50;99.90;;;;;;5069638;28;20056;-73
2023/08/14 05:35:39;;;;;;;16.98;9.48;;;16.60;99.90;;;;;;5068374;28;20042;-73
2023/08/14 05:38:05;;;;;;;20.58;9.32;;;16.70;99.90;;;;;;5066195;28;20041;-74
2023/08/14 05:40:30;;;;;;;18.35;9.55;;;16.70;99.90;;;;;;5074156;28;20045;-74
2023/08/14 05:43:10;;;;;;;19.05;9.80;;;16.80;99.90;;;;;;5067377;28;20036;-74
2023/08/14 05:45:43;;;;;;;19.20;9.02;;;16.90;99.90;;;;;;5068664;28;20040;-74
2023/08/14 05:48:09;;;;;;;19.98;9.75;;;16.90;99.90;;;;;;5076836;28;20087;-73
2023/08/14 05:50:35;;;;;;;21.10;8.98;;;17.00;99.90;;;;;;5068761;28;20025;-74
2023/08/14 05:53:06;;;;;;;18.52;9.30;;;17.10;99.90;;;;;;5065527;28;20572;-73
2023/08/14 05:55:39;;;;;;;10.85;6.00;;;17.10;99.90;;;;;;5084530;28;20397;-74
2023/08/14 05:58:06;;;;;;;13.38;6.43;;;17.10;99.90;;;;;;5085766;28;20032;-73
2023/08/14 06:00:32;;;;;;;10.05;7.18;;;17.20;99.90;;;;;;5085828;28;20028;-73
2023/08/14 06:02:58;;;;;;;11.68;7.63;;;17.20;99.90;;;;;;5075363;28;20029;-74
2023/08/14 06:05:24;;;;;;;12.48;8.02;;;17.20;99.90;;;;;;5064971;28;20084;-75
2023/08/14 06:07:55;;;;;;;15.60;8.45;;;17.20;99.90;;;;;;5064936;28;20534;-72
2023/08/14 06:10:30;;;;;;;11.38;7.60;;;17.10;99.90;;;;;;5061951;28;20459;-73
2023/08/14 06:12:57;;;;;;;11.63;8.13;;;17.10;99.90;;;;;;5070931;28;20036;-73
2023/08/14 06:15:24;;;;;;;15.45;8.55;;;17.20;99.90;;;;;;5067288;28;20025;-72
2023/08/14 06:17:51;;;;;;;19.25;8.70;;;17.20;99.90;;;;;;5069115;28;20029;-73
2023/08/14 06:20:16;;;;;;;14.27;8.70;;;17.30;99.90;;;;;;5076897;28;20075;-74
2023/08/14 06:22:43;;;;;;;12.80;7.75;;;17.30;99.90;;;;;;5081821;28;20024;-73
2023/08/14 06:25:11;;;;;;;14.20;6.97;;;17.30;99.90;;;;;;5079173;28;20029;-72
2023/08/14 06:27:37;;;;;;;14.68;6.82;;;17.40;99.90;;;;;;5074784;28;20031;-72
2023/08/14 06:30:03;;;;;;;13.75;7.28;;;17.50;99.90;;;;;;5072280;28;20078;-72
2023/08/14 06:32:29;;;;;;;14.07;6.85;;;17.60;99.90;;;;;;5077855;28;20052;-72
2023/08/14 06:34:54;;;;;;;10.43;6.35;;;17.70;99.90;;;;;;5073847;28;20033;-72
2023/08/14 06:37:20;;;;;;;12.90;6.25;;;17.80;99.90;;;;;;5069983;28;20076;-72
2023/08/14 06:39:45;;;;;;;10.90;5.53;;;17.90;99.90;;;;;;5073792;28;20066;-73
2023/08/14 06:42:11;;;;;;;8.38;4.85;;;18.00;99.90;;;;;;5074152;28;20025;-72
2023/08/14 06:44:37;;;;;;;13.13;6.05;;;18.10;99.90;;;;;;5073556;28;20013;-72
2023/08/14 06:47:02;;;;;;;13.75;7.07;;;18.20;99.90;;;;;;5069891;28;20060;-72
2023/08/14 06:49:28;;;;;;;20.92;8.05;;;18.30;99.90;;;;;;5074065;28;20036;-72
2023/08/14 06:51:54;;;;;;;12.77;7.07;;;18.40;99.90;;;;;;5066351;28;20076;-74
2023/08/14 06:54:20;;;;;;;13.73;7.25;;;18.50;99.90;;;;;;5065461;28;20033;-73
2023/08/14 06:56:46;;;;;;;14.68;7.75;;;18.60;99.90;;;;;;5064162;28;20039;-72
2023/08/14 06:59:11;;;;;;;12.32;7.28;;;18.60;99.90;;;;;;5067778;28;20048;-72
2023/08/14 07:01:37;;;;;;;14.98;7.82;;;18.70;99.90;;;;;;5068355;28;20485;-72
2023/08/14 07:04:03;;;;;;;16.23;7.80;;;18.70;99.90;;;;;;5063169;28;20025;-73
2023/08/14 07:06:29;;;;;;;12.45;8.00;;;18.80;99.90;;;;;;5074059;28;20093;-72
2023/08/14 07:08:55;;;;;;;19.38;7.97;;;18.90;99.90;;;;;;5074803;28;20039;-73
2023/08/14 07:11:20;;;;;;;13.75;6.38;;;19.00;99.90;;;;;;5072996;28;20113;-74
2023/08/14 07:13:46;;;;;;;13.48;5.28;;;19.10;99.90;;;;;;5084524;28;20060;-72
2023/08/14 07:16:12;;;;;;;11.57;5.55;;;19.20;99.90;;;;;;5077766;28;20123;-72
2023/08/14 07:18:37;;;;;;;12.63;5.90;;;19.30;99.90;;;;;;5066057;28;20884;-72
2023/08/14 07:21:03;;;;;;;10.98;6.03;;;19.40;99.90;;;;;;5072640;28;20035;-72
2023/08/14 07:23:29;;;;;;;11.95;5.00;;;19.40;99.90;;;;;;5084332;28;20068;-72
2023/08/14 07:25:57;;;;;;;11.15;4.80;;;19.40;99.90;;;;;;5075338;28;20112;-72
2023/08/14 07:28:23;;;;;;;10.98;5.15;;;19.40;99.90;;;;;;5064802;28;20466;-73
2023/08/14 07:30:49;;;;;;;15.25;5.05;;;19.50;99.90;;;;;;5069073;28;20104;-73
2023/08/14 07:33:15;;;;;;;10.48;5.05;;;19.50;99.90;;;;;;5068535;28;20437;-72
2023/08/14 07:35:41;;;;;;;11.73;5.32;;;19.50;99.90;;;;;;5068775;28;20111;-72
2023/08/14 07:38:07;;;;;;;7.68;4.70;;;19.60;99.90;;;;;;5072644;28;20430;-72
2023/08/14 07:40:33;;;;;;;10.32;4.13;;;19.60;99.90;;;;;;5073227;28;20049;-72
2023/08/14 07:42:58;;;;;;;7.85;4.13;;;19.60;99.90;;;;;;5073325;28;20071;-72
2023/08/14 07:45:24;;;;;;;8.05;3.35;;;19.60;99.90;;;;;;5084306;28;20082;-73
2023/08/14 07:47:49;;;;;;;5.15;2.85;;;19.70;99.90;;;;;;5083906;28;20486;-72
2023/08/14 07:50:15;;;;;;;7.90;3.42;;;19.70;99.90;;;;;;5069126;28;20048;-72
2023/08/14 07:52:40;;;;;;;6.97;3.03;;;19.70;99.90;;;;;;5063530;28;20060;-72
2023/08/14 07:55:06;;;;;;;7.50;3.13;;;19.80;99.90;;;;;;5063907;28;20056;-72
2023/08/14 07:57:32;;;;;;;4.78;2.83;;;19.90;99.90;;;;;;5063917;28;20044;-72
2023/08/14 07:59:58;;;;;;;7.60;2.38;;;20.00;99.90;;;;;;5063239;28;20048;-72
2023/08/14 08:02:23;;;;;;;7.38;2.80;;;20.10;99.90;;;;;;5071713;28;20024;-71
2023/08/14 08:04:49;;;;;;;5.43;2.17;;;20.20;99.90;;;;;;5084198;28;20029;-73
2023/08/14 08:07:15;;;;;;;7.15;2.60;;;20.20;99.90;;;;;;5084035;28;20103;-72
2023/08/14 08:09:41;;;;;;;4.88;2.42;;;20.30;99.90;;;;;;5084052;28;20044;-72
2023/08/14 08:12:07;;;;;;;8.40;2.92;;;20.40;99.90;;;;;;5082701;28;20032;-72
2023/08/14 08:14:34;;;;;;;7.97;2.40;;;20.40;99.90;;;;;;5083404;28;20025;-72
2023/08/14 08:17:00;;;;;;;7.07;2.72;;;20.50;99.90;;;;;;5068928;28;20029;-72
2023/08/14 08:19:25;;;;;;;5.65;2.63;;;20.50;99.90;;;;;;5063569;28;20456;-72
2023/08/14 08:21:51;;;;;;;7.82;2.55;;;20.50;99.90;;;;;;5063901;28;20113;-72
2023/08/14 08:24:17;;;;;;;7.15;3.08;;;20.60;99.90;;;;;;5064089;28;20040;-73
2023/08/14 08:26:43;;;;;;;4.72;2.88;;;20.60;99.90;;;;;;5062027;28;20493;-72
2023/08/14 08:29:08;;;;;;;8.43;3.90;;;20.60;99.90;;;;;;5063286;28;20108;-72
2023/08/14 08:31:34;;;;;;;11.48;3.90;;;20.70;99.90;;;;;;5062216;28;20036;-72
2023/08/14 08:34:00;;;;;;;7.53;3.47;;;20.70;99.90;;;;;;5063224;28;20055;-72
2023/08/14 08:36:25;;;;;;;10.02;3.50;;;20.80;99.90;;;;;;5064762;28;20041;-73
2023/08/14 08:38:51;;;;;;;8.20;3.00;;;20.80;99.90;;;;;;5066301;28;20041;-74
2023/08/14 08:41:31;;;;;;;7.43;3.08;;;20.90;99.90;;;;;;5087257;28;20165;-72
2023/08/14 08:44:24;;;;;;;8.57;3.40;;;21.00;99.90;;;;;;5087283;28;20055;-73
2023/08/14 08:47:08;;;;;;;7.85;3.10;;;21.00;99.90;;;;;;5086709;28;20036;-72
2023/08/14 08:49:34;;;;;;;9.50;2.97;;;21.10;99.90;;;;;;5087133;28;20029;-72
2023/08/14 08:52:02;;;;;;;4.43;2.58;;;21.10;99.90;;;;;;5086862;28;20100;-72
2023/08/14 08:54:28;;;;;;;9.63;2.30;;;21.10;99.90;;;;;;5085416;28;20127;-74
2023/08/14 08:56:56;;;;;;;5.07;2.17;;;21.10;99.90;;;;;;5087067;28;20029;-73
2023/08/14 08:59:22;;;;;;;4.03;1.80;;;21.10;99.90;;;;;;5087387;28;20041;-73
2023/08/14 09:01:48;;;;;;;5.53;2.10;;;21.20;99.90;;;;;;5086910;28;20029;-73
2023/08/14 09:04:14;;;;;;;8.10;2.30;;;21.20;99.90;;;;;;5086759;28;20035;-73
2023/08/14 09:06:40;;;;;;;5.80;2.15;;;21.20;99.90;;;;;;5085457;28;20029;-73
2023/08/14 09:09:06;;;;;;;3.50;2.03;;;21.20;99.90;;;;;;5086211;28;20031;-72
2023/08/14 09:11:32;;;;;;;4.72;2.17;;;21.30;99.90;;;;;;5086644;28;20099;-72
2023/08/14 09:13:58;;;;;;;6.82;2.05;;;21.40;99.90;;;;;;5086603;28;20029;-73
2023/08/14 09:16:24;;;;;;;3.78;2.25;;;21.50;99.90;;;;;;5086357;28;20029;-73
2023/08/14 09:18:49;;;;;;;3.97;1.98;;;21.60;99.90;;;;;;5085373;28;20122;-72
2023/08/14 09:21:15;;;;;;;4.32;1.92;;;21.60;99.90;;;;;;5086567;28;20024;-72
2023/08/14 09:23:42;;;;;;;5.32;2.10;;;21.60;99.90;;;;;;5086151;28;20050;-73
2023/08/14 09:26:08;;;;;;;8.02;2.30;;;21.70;99.90;;;;;;5085353;28;20035;-72
2023/08/14 09:28:35;;;;;;;7.53;1.80;;;21.80;99.90;;;;;;5086326;28;20025;-73
2023/08/14 09:31:10;;;;;;;8.43;2.20;;;21.90;99.90;;;;;;5086285;28;20024;-74
2023/08/14 09:33:41;;;;;;;5.75;2.20;;;22.10;99.90;;;;;;5085011;28;20044;-73
2023/08/14 09:36:08;;;;;;;5.85;2.28;;;22.10;99.90;;;;;;5084832;28;20017;-73
2023/08/14 09:38:34;;;;;;;6.53;2.13;;;22.20;99.90;;;;;;5085874;28;20041;-73
2023/08/14 09:41:00;;;;;;;6.78;2.30;;;22.30;99.90;;;;;;5085130;28;20117;-73
2023/08/14 09:43:29;;;;;;;4.60;2.40;;;22.30;99.90;;;;;;5084520;28;20028;-72
2023/08/14 09:46:00;;;;;;;7.25;2.40;;;22.30;99.90;;;;;;5084903;28;20025;-73
2023/08/14 09:48:43;;;;;;;5.22;2.60;;;22.30;99.90;;;;;;5084237;28;20459;-73
2023/08/14 09:51:11;;;;;;;6.23;1.90;;;22.20;99.90;;;;;;5085721;28;20501;-72
2023/08/14 09:53:49;;;;;;;5.03;2.28;;;22.20;99.90;;;;;;5085817;28;20284;-72
2023/08/14 09:56:19;;;;;;;6.95;2.40;;;22.30;99.90;;;;;;5084613;28;20033;-73
2023/08/14 09:58:47;;;;;;;10.88;2.83;;;22.40;99.90;;;;;;5085730;28;20568;-73
2023/08/14 10:01:17;;;;;;;7.15;2.38;;;22.30;99.90;;;;;;5084630;28;20035;-74
2023/08/14 10:03:46;;;;;;;8.45;3.00;;;22.30;99.90;;;;;;5085119;28;20524;-73
2023/08/14 10:06:13;;;;;;;10.30;3.00;;;22.10;99.90;;;;;;5085477;28;20066;-72
2023/08/14 10:08:42;;;;;;;10.95;3.03;;;22.10;99.90;;;;;;5085625;28;20032;-73
2023/08/14 10:11:12;;;;;;;7.03;3.13;;;22.10;99.90;;;;;;5085153;28;20444;-74
2023/08/14 10:13:45;;;;;;;6.57;2.85;;;22.10;99.90;;;;;;5084260;28;20029;-73
2023/08/14 10:16:16;;;;;;;12.30;2.97;;;22.30;99.90;;;;;;5085610;28;20039;-72
2023/08/14 10:18:44;;;;;;;7.28;2.80;;;22.40;99.90;;;;;;5085258;28;20485;-73
2023/08/14 10:21:12;;;;;;;8.07;3.30;;;22.50;99.90;;;;;;5084062;28;20024;-73
2023/08/14 10:23:39;;;;;;;6.28;3.05;;;22.70;99.90;;;;;;5085222;28;20032;-72
2023/08/14 10:26:06;;;;;;;10.85;3.47;;;22.80;99.90;;;;;;5084827;28;20024;-72
2023/08/14 10:28:33;;;;;;;9.10;3.92;;;22.90;99.90;;;;;;5085372;28;20074;-73
2023/08/14 10:31:00;;;;;;;10.65;3.47;;;22.90;99.90;;;;;;5085149;28;20021;-73
2023/08/14 10:33:26;;;;;;;7.35;3.22;;;22.80;99.90;;;;;;5084813;28;20021;-73
2023/08/14 10:35:57;;;;;;;8.95;3.40;;;22.80;99.90;;;;;;5085442;28;20020;-72
2023/08/14 10:38:46;;;;;;;7.25;3.13;;;22.80;99.90;;;;;;5084860;28;20025;-71
2023/08/14 10:41:13;;;;;;;10.73;3.60;;;23.00;99.90;;;;;;5085100;28;20084;-72
2023/08/14 10:43:39;;;;;;;9.10;3.80;;;23.10;99.90;;;;;;5084979;28;20566;-74
2023/08/14 10:46:14;;;;;;;10.15;3.42;;;23.30;99.90;;;;;;5084656;28;20024;-72
2023/08/14 10:48:42;;;;;;;7.10;3.58;;;23.40;99.90;;;;;;5084744;28;20092;-72
2023/08/14 10:51:08;;;;;;;10.00;3.20;;;23.50;99.90;;;;;;5084879;28;20017;-73
2023/08/14 10:53:34;;;;;;;10.77;3.10;;;23.50;99.90;;;;;;5084050;28;20055;-72
2023/08/14 10:56:00;;;;;;;7.68;2.85;;;23.70;99.90;;;;;;5084955;28;20035;-72
2023/08/14 10:58:29;;;;;;;8.43;3.10;;;23.70;99.90;;;;;;5084776;28;20083;-73
2023/08/14 11:00:59;;;;;;;7.65;2.78;;;23.90;99.90;;;;;;5082263;28;20078;-75
2023/08/14 11:03:25;;;;;;;7.22;2.95;;;23.90;99.90;;;;;;5084814;28;20032;-73
2023/08/14 11:05:51;;;;;;;11.73;3.10;;;24.00;99.90;;;;;;5084659;28;20016;-72
2023/08/14 11:08:18;;;;;;;5.60;2.70;;;24.10;99.90;;;;;;5083301;28;20072;-76
2023/08/14 11:10:44;;;;;;;9.13;3.13;;;24.20;99.90;;;;;;5084668;28;20032;-72
2023/08/14 11:13:11;;;;;;;6.55;3.10;;;24.30;99.90;;;;;;5084377;28;20025;-73
2023/08/14 11:15:38;;;;;;;9.25;2.67;;;24.40;99.90;;;;;;5084260;28;20029;-72
2023/08/14 11:18:05;;;;;;;8.93;2.90;;;24.50;99.90;;;;;;5084653;28;20032;-72
2023/08/14 11:20:32;;;;;;;12.25;3.20;;;24.70;99.90;;;;;;5084243;28;20401;-73
2023/08/14 11:23:00;;;;;;;7.97;2.90;;;24.80;99.90;;;;;;5084329;28;20017;-72
2023/08/14 11:25:26;;;;;;;5.13;2.58;;;24.90;99.90;;;;;;5084758;28;20058;-72
2023/08/14 11:27:54;;;;;;;12.32;2.47;;;24.90;99.90;;;;;;5082914;28;20025;-72
2023/08/14 11:30:22;;;;;;;6.15;2.45;;;24.90;99.90;;;;;;5084421;28;20035;-72
2023/08/14 11:32:49;;;;;;;10.80;2.33;;;24.90;99.90;;;;;;5084682;28;20032;-73
2023/08/14 11:35:17;;;;;;;10.63;2.20;;;25.00;99.90;;;;;;5084235;28;20028;-73
2023/08/14 11:37:44;;;;;;;5.85;2.10;;;25.10;99.90;;;;;;5082770;28;20028;-71
2023/08/14 11:40:12;;;;;;;6.07;2.00;;;25.30;99.90;;;;;;5084421;28;20067;-72
2023/08/14 11:42:39;;;;;;;11.25;2.30;;;25.30;99.90;;;;;;5083853;28;20021;-72
2023/08/14 11:45:06;;;;;;;11.45;2.45;;;25.40;99.90;;;;;;5082842;28;20025;-72
2023/08/14 11:47:35;;;;;;;6.78;2.10;;;25.40;99.90;;;;;;5082964;28;20025;-74
2023/08/14 11:50:02;;;;;;;8.88;2.30;;;25.40;99.90;;;;;;5083946;28;20025;-73
2023/08/14 11:52:28;;;;;;;8.73;2.80;;;25.50;99.90;;;;;;5084082;28;20127;-74
2023/08/14 11:54:58;;;;;;;7.28;2.30;;;25.50;99.90;;;;;;5084152;28;20028;-72
2023/08/14 11:57:26;;;;;;;5.47;2.03;;;25.50;99.90;;;;;;5082635;28;20100;-71
2023/08/14 11:59:53;;;;;;;5.72;2.50;;;25.60;99.90;;;;;;5084361;28;20103;-73
2023/08/14 12:02:20;;;;;;;6.43;2.30;;;25.60;99.90;;;;;;5082859;28;20445;-73
2023/08/14 12:04:51;;;;;;;8.13;2.53;;;25.70;99.90;;;;;;5084062;28;20016;-73
2023/08/14 12:07:18;;;;;;;6.22;2.22;;;25.80;99.90;;;;;;5083124;28;20124;-72
2023/08/14 12:09:44;;;;;;;7.30;2.13;;;25.90;99.90;;;;;;5083934;28;20043;-75
2023/08/14 12:12:11;;;;;;;5.85;2.35;;;25.90;99.90;;;;;;5086110;28;20793;-73
2023/08/14 12:14:42;;;;;;;6.82;2.30;;;26.00;99.90;;;;;;5087747;28;20020;-72
2023/08/14 12:17:10;;;;;;;6.25;2.58;;;26.00;99.90;;;;;;5079032;28;20041;-73
2023/08/14 12:19:36;;;;;;;6.85;2.38;;;26.00;99.90;;;;;;5077264;28;20058;-74
2023/08/14 12:22:02;;;;;;;6.07;2.08;;;26.00;99.90;;;;;;5075888;28;20024;-72
2023/08/14 12:24:35;;;;;;;6.95;2.50;;;26.10;99.90;;;;;;5071399;28;20036;-72
2023/08/14 12:27:01;;;;;;;9.27;3.03;;;26.20;99.90;;;;;;5088419;28;20036;-74
2023/08/14 12:34:36;;;;;;;5.72;2.20;;;26.30;99.90;;;;;;4975095;28;20051;-74
2023/08/14 12:37:02;;;;;;;7.57;2.50;;;26.40;99.90;;;;;;4984257;28;20026;-71
2023/08/14 12:39:28;;;;;;;7.88;2.72;;;26.40;99.90;;;;;;4985334;28;20042;-73
2023/08/14 12:41:59;;;;;;;5.18;2.40;;;26.40;99.90;;;;;;4981701;28;20027;-71
2023/08/14 12:44:26;;;;;;;6.53;2.70;;;26.40;99.90;;;;;;4970023;28;20035;-73
2023/08/14 12:46:52;;;;;;;8.02;2.55;;;26.40;99.90;;;;;;4984349;28;20054;-71